createdAt,value
2022-12-18T00:00:09.172Z,54.35
2022-12-18T00:00:44.603Z,56.63
2022-12-18T00:01:24.940Z,52.78
2022-12-18T00:01:59.482Z,49.28
2022-12-18T00:02:31.075Z,50.78
2022-12-18T00:03:02.680Z,53.42
2022-12-18T00:03:35.061Z,54.33
2022-12-18T00:04:09.454Z,50.83
2022-12-18T00:04:41.135Z,51.10
2022-12-18T00:05:12.700Z,51.42
2022-12-18T00:05:51.732Z,50.25
2022-12-18T00:06:25.636Z,52.85
2022-12-18T00:06:57.451Z,51.28
2022-12-18T00:07:29.066Z,54.03
2022-12-18T00:08:00.686Z,53.10
2022-12-18T00:08:33.642Z,55.25
2022-12-18T00:09:05.518Z,53.28
2022-12-18T00:09:40.145Z,48.80
2022-12-18T00:10:15.356Z,56.05
2022-12-18T00:10:47.272Z,51.67
2022-12-18T00:11:21.194Z,53.95
2022-12-18T00:11:52.708Z,56.53
2022-12-18T00:12:24.288Z,50.97
2022-12-18T00:12:55.857Z,58.17
2022-12-18T00:13:28.316Z,57.67
2022-12-18T00:14:00.814Z,54.17
2022-12-18T00:14:32.329Z,52.60
2022-12-18T00:15:04.520Z,55.03
2022-12-18T00:15:37.828Z,51.30
2022-12-18T00:16:21.326Z,52.85
2022-12-18T00:16:52.971Z,53.00
2022-12-18T00:17:24.510Z,55.92
2022-12-18T00:17:56.051Z,52.72
2022-12-18T00:18:27.678Z,58.17
2022-12-18T00:19:00.335Z,55.03
2022-12-18T00:19:31.895Z,53.55
2022-12-18T00:20:03.730Z,54.05
2022-12-18T00:20:39.701Z,53.60
2022-12-18T00:21:13.472Z,49.38
2022-12-18T00:21:45.076Z,53.90
2022-12-18T00:22:16.644Z,53.42
2022-12-18T00:22:48.247Z,54.25
2022-12-18T00:23:19.700Z,58.40
2022-12-18T00:23:52.280Z,52.90
2022-12-18T00:24:23.814Z,56.33
2022-12-18T00:24:55.333Z,55.67
2022-12-18T00:25:26.912Z,54.65
2022-12-18T00:26:07.697Z,54.03
2022-12-18T00:26:39.912Z,56.78
2022-12-18T00:27:11.562Z,53.53
2022-12-18T00:27:43.073Z,54.80
2022-12-18T00:28:14.668Z,58.15
2022-12-18T00:28:46.931Z,57.22
2022-12-18T00:29:18.419Z,55.53
2022-12-18T00:29:50.151Z,60.95
2022-12-18T00:30:21.921Z,58.08
2022-12-18T00:31:10.856Z,57.95
2022-12-18T00:31:44.056Z,59.13
2022-12-18T00:32:15.676Z,55.10
2022-12-18T00:32:47.265Z,59.28
2022-12-18T00:33:19.269Z,57.67
2022-12-18T00:33:53.966Z,57.75
2022-12-18T00:34:26.804Z,55.42
2022-12-18T00:34:58.294Z,55.92
2022-12-18T00:35:29.859Z,55.20
2022-12-18T00:36:11.116Z,56.70
2022-12-18T00:36:42.907Z,55.30
2022-12-18T00:37:20.239Z,60.10
2022-12-18T00:37:52.029Z,54.38
2022-12-18T00:38:23.615Z,60.72
2022-12-18T00:38:56.685Z,60.17
2022-12-18T00:39:28.122Z,57.53
2022-12-18T00:39:59.724Z,54.30
2022-12-18T00:40:31.302Z,57.95
2022-12-18T00:41:05.857Z,56.30
2022-12-18T00:41:55.991Z,60.60
2022-12-18T00:42:46.060Z,49.72
2022-12-18T00:43:17.617Z,52.13
2022-12-18T00:43:49.160Z,54.38
2022-12-18T00:44:21.087Z,59.05
2022-12-18T00:44:52.642Z,57.10
2022-12-18T00:45:29.523Z,55.58
2022-12-18T00:46:01.146Z,58.55
2022-12-18T00:46:33.148Z,50.20
2022-12-18T00:47:53.682Z,53.92
2022-12-18T00:48:25.133Z,57.05
2022-12-18T00:48:56.648Z,51.83
2022-12-18T00:49:28.238Z,53.65
2022-12-18T00:49:59.726Z,55.67
2022-12-18T00:50:31.209Z,51.65
2022-12-18T00:51:03.300Z,56.58
2022-12-18T00:51:34.892Z,58.95
2022-12-18T00:52:06.411Z,56.97
2022-12-18T00:52:38.122Z,50.13
2022-12-18T00:53:09.687Z,56.05
2022-12-18T00:53:42.162Z,60.45
2022-12-18T00:54:14.187Z,58.20
2022-12-18T00:54:45.630Z,53.95
2022-12-18T00:55:17.384Z,59.22
2022-12-18T00:55:48.908Z,60.90
2022-12-18T00:56:24.342Z,52.22
2022-12-18T00:56:56.223Z,55.53
2022-12-18T00:57:27.753Z,57.05
2022-12-18T00:57:59.264Z,59.55
2022-12-18T00:58:30.772Z,58.75
2022-12-18T00:59:02.288Z,53.15
2022-12-18T00:59:33.854Z,59.00
2022-12-18T01:00:06.884Z,56.50
2022-12-18T01:00:39.057Z,59.70
2022-12-18T01:01:10.633Z,55.08
2022-12-18T01:01:42.382Z,55.50
2022-12-18T01:02:14.294Z,56.58
2022-12-18T01:02:46.048Z,60.22
2022-12-18T01:03:17.716Z,55.97
2022-12-18T01:03:49.690Z,58.42
2022-12-18T01:04:21.289Z,59.47
2022-12-18T01:04:52.803Z,57.83
2022-12-18T01:05:24.411Z,58.58
2022-12-18T01:05:55.846Z,59.45
2022-12-18T01:06:27.564Z,61.53
2022-12-18T01:06:59.029Z,58.22
2022-12-18T01:07:30.464Z,54.75
2022-12-18T01:08:01.915Z,55.67
2022-12-18T01:08:33.381Z,58.22
2022-12-18T01:09:05.135Z,59.42
2022-12-18T01:09:36.644Z,63.25
2022-12-18T01:10:10.417Z,59.83
2022-12-18T01:10:42.603Z,58.05
2022-12-18T01:11:18.022Z,57.88
2022-12-18T01:11:49.533Z,62.00
2022-12-18T01:12:21.088Z,54.58
2022-12-18T01:12:52.753Z,55.17
2022-12-18T01:13:24.274Z,57.42
2022-12-18T01:13:56.046Z,55.88
2022-12-18T01:14:27.613Z,57.80
2022-12-18T01:14:59.129Z,57.25
2022-12-18T01:15:30.718Z,57.37
2022-12-18T01:16:02.617Z,59.72
2022-12-18T01:16:34.092Z,55.88
2022-12-18T01:17:05.695Z,52.90
2022-12-18T01:17:37.291Z,55.70
2022-12-18T01:18:08.831Z,55.50
2022-12-18T01:18:40.641Z,58.85
2022-12-18T01:19:12.595Z,59.03
2022-12-18T01:19:44.090Z,52.75
2022-12-18T01:20:15.954Z,59.40
2022-12-18T01:20:47.528Z,53.23
2022-12-18T01:21:19.105Z,59.42
2022-12-18T01:21:50.726Z,61.17
2022-12-18T01:22:22.218Z,64.20
2022-12-18T01:22:53.812Z,57.33
2022-12-18T01:23:25.310Z,55.15
2022-12-18T01:23:58.116Z,57.22
2022-12-18T01:24:29.779Z,54.50
2022-12-18T01:25:02.049Z,58.75
2022-12-18T01:25:33.600Z,56.42
2022-12-18T01:26:08.532Z,57.90
2022-12-18T01:26:40.134Z,56.83
2022-12-18T01:27:11.829Z,56.10
2022-12-18T01:27:43.357Z,59.53
2022-12-18T01:28:14.812Z,60.10
2022-12-18T01:28:46.280Z,53.15
2022-12-18T01:29:17.997Z,55.45
2022-12-18T01:29:50.294Z,58.08
2022-12-18T01:30:21.892Z,56.58
2022-12-18T01:30:53.359Z,57.05
2022-12-18T01:31:27.507Z,56.67
2022-12-18T01:31:59.215Z,58.90
2022-12-18T01:32:31.980Z,57.83
2022-12-18T01:33:05.734Z,59.65
2022-12-18T01:33:37.876Z,54.72
2022-12-18T01:34:10.040Z,55.85
2022-12-18T01:34:41.782Z,56.20
2022-12-18T01:35:13.216Z,56.28
2022-12-18T01:35:44.788Z,55.97
2022-12-18T01:36:36.633Z,61.20
2022-12-18T01:37:08.259Z,54.97
2022-12-18T01:37:39.791Z,57.47
2022-12-18T01:38:11.351Z,57.20
2022-12-18T01:38:43.382Z,61.30
2022-12-18T01:39:16.163Z,53.53
2022-12-18T01:39:47.649Z,56.85
2022-12-18T01:40:19.114Z,55.65
2022-12-18T01:40:50.603Z,55.95
2022-12-18T01:41:27.259Z,57.83
2022-12-18T01:42:05.640Z,58.08
2022-12-18T01:42:37.404Z,56.47
2022-12-18T01:43:59.395Z,53.10
2022-12-18T01:45:01.624Z,55.25
2022-12-18T01:45:33.126Z,52.83
2022-12-18T01:46:04.774Z,53.67
2022-12-18T01:46:36.298Z,52.88
2022-12-18T01:47:08.029Z,54.28
2022-12-18T01:47:46.453Z,60.17
2022-12-18T01:48:18.020Z,55.90
2022-12-18T01:48:52.413Z,55.53
2022-12-18T01:49:23.871Z,54.55
2022-12-18T01:49:56.785Z,54.75
2022-12-18T01:50:36.904Z,59.63
2022-12-18T01:51:11.218Z,54.50
2022-12-18T01:51:45.098Z,52.45
2022-12-18T01:52:18.772Z,57.38
2022-12-18T01:52:56.388Z,56.33
2022-12-18T01:53:27.962Z,54.85
2022-12-18T01:54:19.101Z,57.95
2022-12-18T01:54:53.181Z,58.67
2022-12-18T01:55:27.429Z,53.47
2022-12-18T01:56:00.148Z,51.80
2022-12-18T01:56:31.837Z,55.22
2022-12-18T01:57:03.452Z,54.50
2022-12-18T01:57:35.941Z,54.88
2022-12-18T01:58:07.728Z,57.75
2022-12-18T01:58:48.215Z,57.67
2022-12-18T01:59:19.971Z,51.88
2022-12-18T01:59:54.787Z,56.30
2022-12-18T02:00:27.553Z,56.07
2022-12-18T02:00:59.110Z,59.25
2022-12-18T02:01:32.424Z,54.38
2022-12-18T02:02:04.401Z,53.78
2022-12-18T02:02:36.451Z,52.90
2022-12-18T02:03:08.052Z,53.55
2022-12-18T02:03:43.796Z,56.25
2022-12-18T02:04:28.016Z,55.20
2022-12-18T02:04:59.639Z,50.72
2022-12-18T02:05:56.536Z,58.05
2022-12-18T02:06:36.529Z,53.37
2022-12-18T02:07:45.434Z,54.50
2022-12-18T02:08:44.540Z,47.47
2022-12-18T02:09:23.837Z,55.83
2022-12-18T02:10:04.904Z,54.42
2022-12-18T02:10:57.172Z,51.47
2022-12-18T02:12:04.834Z,51.60
2022-12-18T02:12:46.260Z,49.45
2022-12-18T02:13:41.858Z,51.50
2022-12-18T02:14:39.927Z,51.22
2022-12-18T02:15:25.246Z,48.00
2022-12-18T02:16:16.968Z,49.17
2022-12-18T02:17:22.069Z,53.00
2022-12-18T02:17:59.502Z,50.75
2022-12-18T02:18:39.322Z,50.63
2022-12-18T02:19:30.154Z,51.75
2022-12-18T02:20:33.070Z,50.38
2022-12-18T02:21:19.580Z,56.92
2022-12-18T02:22:03.498Z,53.63
2022-12-18T02:22:54.841Z,45.75
2022-12-18T02:23:42.432Z,52.43
2022-12-18T02:24:30.757Z,50.40
2022-12-18T02:25:13.909Z,54.90
2022-12-18T02:26:03.161Z,56.55
2022-12-18T02:26:41.262Z,53.97
2022-12-18T02:27:14.154Z,54.60
2022-12-18T02:27:49.686Z,53.80
2022-12-18T02:28:24.852Z,53.85
2022-12-18T02:28:59.434Z,56.15
2022-12-18T02:29:50.535Z,51.47
2022-12-18T02:30:24.736Z,59.03
2022-12-18T02:31:00.581Z,49.55
2022-12-18T02:31:39.954Z,55.28
2022-12-18T02:32:17.837Z,56.17
2022-12-18T02:32:53.174Z,51.58
2022-12-18T02:33:26.678Z,56.10
2022-12-18T02:34:03.203Z,55.40
2022-12-18T02:34:38.882Z,53.42
2022-12-18T02:35:15.078Z,52.03
2022-12-18T02:35:47.816Z,53.42
2022-12-18T02:36:21.114Z,53.67
2022-12-18T02:36:55.233Z,58.88
2022-12-18T02:37:28.954Z,54.88
2022-12-18T02:38:01.322Z,55.83
2022-12-18T02:38:34.904Z,51.72
2022-12-18T02:39:09.946Z,56.95
2022-12-18T02:39:44.045Z,59.30
2022-12-18T02:40:18.122Z,50.67
2022-12-18T02:40:51.928Z,60.55
2022-12-18T02:41:24.001Z,56.78
2022-12-18T02:41:55.736Z,50.37
2022-12-18T02:42:29.044Z,55.38
2022-12-18T02:43:15.281Z,55.30
2022-12-18T02:43:54.797Z,55.03
2022-12-18T02:44:26.481Z,51.38
2022-12-18T02:44:58.030Z,52.00
2022-12-18T02:45:29.588Z,55.20
2022-12-18T02:46:22.030Z,59.25
2022-12-18T02:46:55.030Z,54.95
2022-12-18T02:47:31.914Z,50.50
2022-12-18T02:48:03.725Z,58.03
2022-12-18T02:48:37.197Z,57.17
2022-12-18T02:49:11.330Z,50.55
2022-12-18T02:50:05.152Z,53.97
2022-12-18T02:50:45.890Z,51.60
2022-12-18T02:51:36.180Z,46.45
2022-12-18T02:52:32.541Z,49.75
2022-12-18T02:53:23.057Z,47.10
2022-12-18T02:54:01.915Z,48.05
2022-12-18T02:54:52.797Z,54.25
2022-12-18T02:55:49.973Z,49.83
2022-12-18T02:56:30.095Z,48.45
2022-12-18T02:57:13.502Z,45.92
2022-12-18T02:57:55.002Z,48.90
2022-12-18T02:58:41.614Z,47.33
2022-12-18T02:59:32.736Z,48.75
2022-12-18T03:00:13.287Z,46.33
2022-12-18T03:00:57.678Z,47.08
2022-12-18T03:01:41.449Z,52.65
2022-12-18T03:02:27.346Z,46.92
2022-12-18T03:03:07.966Z,41.80
2022-12-18T03:03:51.722Z,48.85
2022-12-18T03:04:44.700Z,45.67
2022-12-18T03:06:20.862Z,45.08
2022-12-18T03:06:56.985Z,46.85
2022-12-18T03:07:41.097Z,50.33
2022-12-18T03:08:28.837Z,44.00
2022-12-18T03:09:23.018Z,44.38
2022-12-18T03:09:56.388Z,50.28
2022-12-18T03:10:35.201Z,45.80
2022-12-18T03:11:11.788Z,46.92
2022-12-18T03:12:08.069Z,49.17
2022-12-18T03:12:47.708Z,49.05
2022-12-18T03:13:27.866Z,49.08
2022-12-18T03:14:00.992Z,43.45
2022-12-18T03:14:37.827Z,50.50
2022-12-18T03:15:18.344Z,43.17
2022-12-18T03:15:54.436Z,52.58
2022-12-18T03:16:29.795Z,44.65
2022-12-18T03:17:10.397Z,47.07
2022-12-18T03:17:47.436Z,43.38
2022-12-18T03:18:39.985Z,53.35
2022-12-18T03:19:17.867Z,47.05
2022-12-18T03:19:50.922Z,45.85
2022-12-18T03:20:24.718Z,47.40
2022-12-18T03:21:01.367Z,50.00
2022-12-18T03:21:43.154Z,47.25
2022-12-18T03:22:17.197Z,46.47
2022-12-18T03:22:52.921Z,45.40
2022-12-18T03:23:30.091Z,48.67
2022-12-18T03:24:04.381Z,47.78
2022-12-18T03:24:40.000Z,51.97
2022-12-18T03:25:15.127Z,44.75
2022-12-18T03:25:48.643Z,49.65
2022-12-18T03:26:26.293Z,48.38
2022-12-18T03:27:04.107Z,49.03
2022-12-18T03:27:40.054Z,47.17
2022-12-18T03:28:16.705Z,48.28
2022-12-18T03:28:55.520Z,49.33
2022-12-18T03:29:34.887Z,48.10
2022-12-18T03:30:11.345Z,43.53
2022-12-18T03:30:47.169Z,41.92
2022-12-18T03:31:23.062Z,46.03
2022-12-18T03:32:08.616Z,47.97
2022-12-18T03:32:46.003Z,45.15
2022-12-18T03:33:49.540Z,51.53
2022-12-18T03:34:27.993Z,43.38
2022-12-18T03:35:04.109Z,39.03
2022-12-18T03:35:40.197Z,42.83
2022-12-18T03:36:12.490Z,45.67
2022-12-18T03:36:44.409Z,41.13
2022-12-18T03:37:16.238Z,50.92
2022-12-18T03:37:47.881Z,41.85
2022-12-18T03:38:19.935Z,42.53
2022-12-18T03:38:52.080Z,40.45
2022-12-18T03:39:23.778Z,43.03
2022-12-18T03:39:55.305Z,43.05
2022-12-18T03:40:44.279Z,45.28
2022-12-18T03:41:53.969Z,43.90
2022-12-18T03:42:51.207Z,42.30
2022-12-18T03:43:35.226Z,36.20
2022-12-18T03:44:15.977Z,36.80
2022-12-18T03:45:01.480Z,37.58
2022-12-18T03:45:38.410Z,42.33
2022-12-18T03:46:17.532Z,39.65
2022-12-18T03:47:10.684Z,44.58
2022-12-18T03:47:59.729Z,37.38
2022-12-18T03:48:38.956Z,39.25
2022-12-18T03:49:26.657Z,40.70
2022-12-18T03:50:16.701Z,38.73
2022-12-18T03:50:51.541Z,38.00
2022-12-18T03:51:25.685Z,42.53
2022-12-18T03:52:12.513Z,42.67
2022-12-18T03:52:53.023Z,39.53
2022-12-18T03:53:45.792Z,39.17
2022-12-18T03:54:18.447Z,37.78
2022-12-18T03:54:50.876Z,40.15
2022-12-18T03:55:24.092Z,39.92
2022-12-18T03:55:57.964Z,39.67
2022-12-18T03:56:38.274Z,39.37
2022-12-18T03:57:20.400Z,43.20
2022-12-18T03:57:53.559Z,37.60
2022-12-18T03:58:33.909Z,40.95
2022-12-18T03:59:06.867Z,39.17
2022-12-18T03:59:39.428Z,36.72
2022-12-18T04:00:14.405Z,38.10
2022-12-18T04:00:48.847Z,40.08
2022-12-18T04:01:26.866Z,37.92
2022-12-18T04:02:00.797Z,39.90
2022-12-18T04:02:35.435Z,40.03
2022-12-18T04:03:10.039Z,38.83
2022-12-18T04:03:45.081Z,38.83
2022-12-18T04:04:19.694Z,37.75
2022-12-18T04:05:44.992Z,39.42
2022-12-18T04:06:17.793Z,41.28
2022-12-18T04:06:51.145Z,40.90
2022-12-18T04:07:23.908Z,40.00
2022-12-18T04:07:57.222Z,35.00
2022-12-18T04:08:30.049Z,38.10
2022-12-18T04:09:01.822Z,40.72
2022-12-18T04:09:35.171Z,36.45
2022-12-18T04:10:10.292Z,39.45
2022-12-18T04:10:41.750Z,34.80
2022-12-18T04:11:13.293Z,36.55
2022-12-18T04:11:45.370Z,36.53
2022-12-18T04:12:16.986Z,39.33
2022-12-18T04:12:48.934Z,40.75
2022-12-18T04:13:30.301Z,41.35
2022-12-18T04:14:06.976Z,35.10
2022-12-18T04:14:38.867Z,40.50
2022-12-18T04:15:11.607Z,39.00
2022-12-18T04:15:43.199Z,38.88
2022-12-18T04:16:14.805Z,38.67
2022-12-18T04:16:46.325Z,39.53
2022-12-18T04:17:17.902Z,39.60
2022-12-18T04:17:50.657Z,34.88
2022-12-18T04:18:22.185Z,38.75
2022-12-18T04:18:54.644Z,35.45
2022-12-18T04:19:26.138Z,39.47
2022-12-18T04:19:57.721Z,39.17
2022-12-18T04:20:29.310Z,39.50
2022-12-18T04:21:00.833Z,35.58
2022-12-18T04:21:32.319Z,36.85
2022-12-18T04:22:03.842Z,39.30
2022-12-18T04:22:36.378Z,35.42
2022-12-18T04:23:07.852Z,34.42
2022-12-18T04:23:39.724Z,33.13
2022-12-18T04:24:11.652Z,36.33
2022-12-18T04:24:43.261Z,35.57
2022-12-18T04:25:15.458Z,37.03
2022-12-18T04:25:48.568Z,38.03
2022-12-18T04:26:20.059Z,38.20
2022-12-18T04:26:51.510Z,34.95
2022-12-18T04:28:12.289Z,33.35
2022-12-18T04:28:43.830Z,33.95
2022-12-18T04:29:15.460Z,34.58
2022-12-18T04:29:47.045Z,34.08
2022-12-18T04:30:18.563Z,35.67
2022-12-18T04:30:50.554Z,35.22
2022-12-18T04:31:22.656Z,36.58
2022-12-18T04:31:54.167Z,36.53
2022-12-18T04:32:25.844Z,32.92
2022-12-18T04:32:57.339Z,35.55
2022-12-18T04:33:28.837Z,37.28
2022-12-18T04:34:00.269Z,35.97
2022-12-18T04:34:31.773Z,33.60
2022-12-18T04:35:05.190Z,34.35
2022-12-18T04:35:36.777Z,33.87
2022-12-18T04:36:08.473Z,37.35
2022-12-18T04:36:39.880Z,34.65
2022-12-18T04:37:12.248Z,35.15
2022-12-18T04:37:43.691Z,32.55
2022-12-18T04:38:15.391Z,32.63
2022-12-18T04:38:46.893Z,34.60
2022-12-18T04:39:18.427Z,34.35
2022-12-18T04:39:49.980Z,35.67
2022-12-18T04:40:21.485Z,31.73
2022-12-18T04:40:53.016Z,32.33
2022-12-18T04:41:24.570Z,32.92
2022-12-18T04:41:56.132Z,36.22
2022-12-18T04:42:27.973Z,30.35
2022-12-18T04:42:59.491Z,33.13
2022-12-18T04:43:31.073Z,33.53
2022-12-18T04:44:02.559Z,32.45
2022-12-18T04:44:34.023Z,30.63
2022-12-18T04:45:06.177Z,35.10
2022-12-18T04:45:37.663Z,34.13
2022-12-18T04:46:09.760Z,35.00
2022-12-18T04:46:41.517Z,28.67
2022-12-18T04:47:13.018Z,32.97
2022-12-18T04:47:44.699Z,33.28
2022-12-18T04:48:17.020Z,29.92
2022-12-18T04:48:48.463Z,32.13
2022-12-18T04:49:20.101Z,33.60
2022-12-18T04:49:51.583Z,34.03
2022-12-18T04:50:23.152Z,34.90
2022-12-18T04:50:54.631Z,37.25
2022-12-18T04:51:26.951Z,37.00
2022-12-18T04:51:58.600Z,31.65
2022-12-18T04:52:30.100Z,29.30
2022-12-18T04:53:01.860Z,32.10
2022-12-18T04:53:34.088Z,32.95
2022-12-18T04:54:05.693Z,28.52
2022-12-18T04:54:37.187Z,33.30
2022-12-18T04:55:08.885Z,33.90
2022-12-18T04:55:40.381Z,34.22
2022-12-18T04:56:14.421Z,26.60
2022-12-18T04:56:45.868Z,30.20
2022-12-18T04:57:19.013Z,32.92
2022-12-18T04:57:50.522Z,31.20
2022-12-18T04:58:21.976Z,28.23
2022-12-18T04:58:53.477Z,30.10
2022-12-18T04:59:25.010Z,30.50
2022-12-18T04:59:56.527Z,32.03
2022-12-18T05:00:28.060Z,29.02
2022-12-18T05:00:59.958Z,30.85
2022-12-18T05:01:34.860Z,29.15
2022-12-18T05:02:07.003Z,30.87
2022-12-18T05:02:38.639Z,28.92
2022-12-18T05:03:10.221Z,30.38
2022-12-18T05:03:42.283Z,27.63
2022-12-18T05:04:14.037Z,35.15
2022-12-18T05:04:45.472Z,29.45
2022-12-18T05:05:17.111Z,32.60
2022-12-18T05:05:52.265Z,29.45
2022-12-18T05:06:23.711Z,28.65
2022-12-18T05:06:55.264Z,29.30
2022-12-18T05:07:26.699Z,29.17
2022-12-18T05:07:58.207Z,29.65
2022-12-18T05:08:29.721Z,29.80
2022-12-18T05:09:01.233Z,31.58
2022-12-18T05:09:32.736Z,31.13
2022-12-18T05:10:08.134Z,28.58
2022-12-18T05:10:44.725Z,32.03
2022-12-18T05:11:19.642Z,30.77
2022-12-18T05:11:51.207Z,28.40
2022-12-18T05:12:22.828Z,29.23
2022-12-18T05:13:01.291Z,31.03
2022-12-18T05:13:33.889Z,29.02
2022-12-18T05:14:05.348Z,30.58
2022-12-18T05:14:36.884Z,27.58
2022-12-18T05:15:08.809Z,28.90
2022-12-18T05:15:40.305Z,28.27
2022-12-18T05:16:12.840Z,28.90
2022-12-18T05:16:44.397Z,28.60
2022-12-18T05:17:17.321Z,30.50
2022-12-18T05:17:48.773Z,25.55
2022-12-18T05:18:20.349Z,30.50
2022-12-18T05:18:51.939Z,30.73
2022-12-18T05:19:23.491Z,28.80
2022-12-18T05:19:55.002Z,28.13
2022-12-18T05:21:16.354Z,24.23
2022-12-18T05:21:47.884Z,26.50
2022-12-18T05:22:19.408Z,24.33
2022-12-18T05:22:51.883Z,29.02
2022-12-18T05:23:24.980Z,26.52
2022-12-18T05:23:56.381Z,25.20
2022-12-18T05:24:28.036Z,28.48
2022-12-18T05:24:59.469Z,28.08
2022-12-18T05:25:30.975Z,29.08
2022-12-18T05:26:05.575Z,31.30
2022-12-18T05:26:37.044Z,27.55
2022-12-18T05:27:08.599Z,28.58
2022-12-18T05:27:40.140Z,27.90
2022-12-18T05:28:11.775Z,28.02
2022-12-18T05:28:43.271Z,26.83
2022-12-18T05:29:14.844Z,24.47
2022-12-18T05:29:46.411Z,24.95
2022-12-18T05:30:18.030Z,26.58
2022-12-18T05:30:54.285Z,26.10
2022-12-18T05:31:25.823Z,27.45
2022-12-18T05:31:57.447Z,25.65
2022-12-18T05:32:28.910Z,27.15
2022-12-18T05:33:00.383Z,28.38
2022-12-18T05:33:34.231Z,27.60
2022-12-18T05:34:06.411Z,29.35
2022-12-18T05:34:38.346Z,27.30
2022-12-18T05:35:11.859Z,27.75
2022-12-18T05:35:43.402Z,25.25
2022-12-18T05:36:14.940Z,26.52
2022-12-18T05:36:47.765Z,24.02
2022-12-18T05:37:19.321Z,27.48
2022-12-18T05:37:50.761Z,25.63
2022-12-18T05:38:23.669Z,25.10
2022-12-18T05:38:55.215Z,25.48
2022-12-18T05:39:26.701Z,26.20
2022-12-18T05:39:58.143Z,29.33
2022-12-18T05:40:29.622Z,26.23
2022-12-18T05:41:02.753Z,24.58
2022-12-18T05:41:34.414Z,27.08
2022-12-18T05:42:05.962Z,26.85
2022-12-18T05:42:37.592Z,30.75
2022-12-18T05:43:09.204Z,28.42
2022-12-18T05:43:41.533Z,27.58
2022-12-18T05:44:13.485Z,25.63
2022-12-18T05:44:45.418Z,25.70
2022-12-18T05:45:17.020Z,23.07
2022-12-18T05:45:51.496Z,26.50
2022-12-18T05:46:23.081Z,27.00
2022-12-18T05:46:54.818Z,26.00
2022-12-18T05:47:27.828Z,28.48
2022-12-18T05:47:59.329Z,25.50
2022-12-18T05:48:30.869Z,27.35
2022-12-18T05:49:02.474Z,25.17
2022-12-18T05:49:33.942Z,26.50
2022-12-18T05:50:06.125Z,25.08
2022-12-18T05:50:38.342Z,26.80
2022-12-18T05:51:13.877Z,25.48
2022-12-18T05:51:45.689Z,23.77
2022-12-18T05:52:17.266Z,25.92
2022-12-18T05:52:48.721Z,25.20
2022-12-18T05:53:21.446Z,26.98
2022-12-18T05:53:53.010Z,26.05
2022-12-18T05:54:24.513Z,26.58
2022-12-18T05:54:56.033Z,24.92
2022-12-18T05:55:27.530Z,23.65
2022-12-18T05:56:03.005Z,25.73
2022-12-18T05:56:34.474Z,28.27
2022-12-18T05:57:05.968Z,26.98
2022-12-18T05:57:37.550Z,26.90
2022-12-18T05:58:10.833Z,26.23
2022-12-18T05:58:42.910Z,25.70
2022-12-18T05:59:14.426Z,27.25
2022-12-18T05:59:45.970Z,24.98
2022-12-18T06:00:20.768Z,30.92
2022-12-18T06:00:52.338Z,25.23
2022-12-18T06:01:27.387Z,28.43
2022-12-18T06:01:59.124Z,26.85
2022-12-18T06:02:30.692Z,27.02
2022-12-18T06:03:02.570Z,27.15
2022-12-18T06:03:34.343Z,27.45
2022-12-18T06:04:05.904Z,25.23
2022-12-18T06:04:38.288Z,23.48
2022-12-18T06:05:10.048Z,24.55
2022-12-18T06:05:46.065Z,26.30
2022-12-18T06:07:08.350Z,25.30
2022-12-18T06:07:39.750Z,24.10
2022-12-18T06:08:12.603Z,27.70
2022-12-18T06:08:46.773Z,26.50
2022-12-18T06:09:18.447Z,26.85
2022-12-18T06:09:49.922Z,25.73
2022-12-18T06:10:21.404Z,25.00
2022-12-18T06:10:53.592Z,27.00
2022-12-18T06:11:27.356Z,28.75
2022-12-18T06:11:58.922Z,27.70
2022-12-18T06:12:30.437Z,26.27
2022-12-18T06:13:02.371Z,24.17
2022-12-18T06:13:33.923Z,26.75
2022-12-18T06:14:07.167Z,28.13
2022-12-18T06:14:38.895Z,26.30
2022-12-18T06:15:10.444Z,26.33
2022-12-18T06:15:41.927Z,26.02
2022-12-18T06:16:13.486Z,24.92
2022-12-18T06:16:45.176Z,22.48
2022-12-18T06:17:16.608Z,25.08
2022-12-18T06:17:48.088Z,28.33
2022-12-18T06:18:19.599Z,25.05
2022-12-18T06:18:51.049Z,22.33
2022-12-18T06:19:22.583Z,25.85
2022-12-18T06:19:54.116Z,24.48
2022-12-18T06:20:30.419Z,23.90
2022-12-18T06:21:04.842Z,22.35
2022-12-18T06:21:36.244Z,25.70
2022-12-18T06:22:07.922Z,24.42
2022-12-18T06:22:39.481Z,24.40
2022-12-18T06:23:10.901Z,24.03
2022-12-18T06:23:43.206Z,24.65
2022-12-18T06:24:14.856Z,27.80
2022-12-18T06:24:46.321Z,24.48
2022-12-18T06:25:17.845Z,26.77
2022-12-18T06:25:49.491Z,29.58
2022-12-18T06:26:26.153Z,28.13
2022-12-18T06:26:59.371Z,24.33
2022-12-18T06:27:30.871Z,24.35
2022-12-18T06:28:02.488Z,26.20
2022-12-18T06:28:34.201Z,25.60
2022-12-18T06:29:06.634Z,23.92
2022-12-18T06:29:38.215Z,25.50
2022-12-18T06:30:10.516Z,29.85
2022-12-18T06:30:45.432Z,26.25
2022-12-18T06:31:17.111Z,23.83
2022-12-18T06:31:48.747Z,30.00
2022-12-18T06:32:20.308Z,24.58
2022-12-18T06:32:56.645Z,25.02
2022-12-18T06:33:29.729Z,24.13
2022-12-18T06:34:04.169Z,31.43
2022-12-18T06:34:44.479Z,27.70
2022-12-18T06:35:21.230Z,24.25
2022-12-18T06:35:57.831Z,26.73
2022-12-18T06:36:32.665Z,26.67
2022-12-18T06:37:07.454Z,25.48
2022-12-18T06:37:39.170Z,22.70
2022-12-18T06:38:12.078Z,26.50
2022-12-18T06:38:44.883Z,27.20
2022-12-18T06:39:16.381Z,27.58
2022-12-18T06:39:48.206Z,29.80
2022-12-18T06:40:19.910Z,28.55
2022-12-18T06:40:51.404Z,25.13
2022-12-18T06:41:23.107Z,25.90
2022-12-18T06:41:54.554Z,25.25
2022-12-18T06:42:26.290Z,25.95
2022-12-18T06:42:58.446Z,28.67
2022-12-18T06:43:32.039Z,26.70
2022-12-18T06:44:04.082Z,27.00
2022-12-18T06:44:35.474Z,28.35
2022-12-18T06:45:07.443Z,24.70
2022-12-18T06:45:38.933Z,26.52
2022-12-18T06:46:11.257Z,26.92
2022-12-18T06:46:42.703Z,27.67
2022-12-18T06:47:14.569Z,27.30
2022-12-18T06:47:46.171Z,28.92
2022-12-18T06:48:17.673Z,25.38
2022-12-18T06:48:50.817Z,28.08
2022-12-18T06:49:26.149Z,26.60
2022-12-18T06:50:00.272Z,26.60
2022-12-18T06:50:31.817Z,25.27
2022-12-18T06:51:04.022Z,26.13
2022-12-18T06:51:35.584Z,26.70
2022-12-18T06:52:07.293Z,27.80
2022-12-18T06:52:39.939Z,25.25
2022-12-18T06:53:11.517Z,29.55
2022-12-18T06:53:43.345Z,29.23
2022-12-18T06:54:15.112Z,26.73
2022-12-18T06:54:46.593Z,26.90
2022-12-18T06:55:18.288Z,26.73
2022-12-18T06:55:49.911Z,24.47
2022-12-18T06:56:21.516Z,30.48
2022-12-18T06:56:53.073Z,30.23
2022-12-18T06:57:24.573Z,26.95
2022-12-18T06:57:56.138Z,29.90
2022-12-18T06:58:28.635Z,27.10
2022-12-18T06:59:00.319Z,29.65
2022-12-18T06:59:31.748Z,28.45
2022-12-18T07:00:06.382Z,28.40
2022-12-18T07:00:38.023Z,27.60
2022-12-18T07:01:12.114Z,24.07
2022-12-18T07:01:43.715Z,26.30
2022-12-18T07:02:15.509Z,25.85
2022-12-18T07:02:47.250Z,25.63
2022-12-18T07:03:18.825Z,27.38
2022-12-18T07:03:56.773Z,25.00
2022-12-18T07:04:30.229Z,24.00
2022-12-18T07:05:06.194Z,26.90
2022-12-18T07:05:42.115Z,25.40
2022-12-18T07:06:21.101Z,26.30
2022-12-18T07:06:52.618Z,24.67
2022-12-18T07:07:24.170Z,24.15
2022-12-18T07:07:55.695Z,26.30
2022-12-18T07:08:27.181Z,28.90
2022-12-18T07:08:58.943Z,27.40
2022-12-18T07:09:30.453Z,23.65
2022-12-18T07:10:01.930Z,27.63
2022-12-18T07:10:33.463Z,26.20
2022-12-18T07:11:05.440Z,26.90
2022-12-18T07:11:36.985Z,27.63
2022-12-18T07:12:09.112Z,24.63
2022-12-18T07:12:42.467Z,27.15
2022-12-18T07:13:13.943Z,25.40
2022-12-18T07:13:46.641Z,28.55
2022-12-18T07:14:18.138Z,23.60
2022-12-18T07:14:49.597Z,25.73
2022-12-18T07:15:21.114Z,25.25
2022-12-18T07:15:52.583Z,29.55
2022-12-18T07:16:25.669Z,27.92
2022-12-18T07:16:57.555Z,26.35
2022-12-18T07:17:30.439Z,26.97
2022-12-18T07:18:02.041Z,24.95
2022-12-18T07:18:33.532Z,24.83
2022-12-18T07:19:04.983Z,22.88
2022-12-18T07:19:36.524Z,26.52
2022-12-18T07:20:08.749Z,26.52
2022-12-18T07:20:40.298Z,24.75
2022-12-18T07:21:17.102Z,25.88
2022-12-18T07:21:48.523Z,25.20
2022-12-18T07:22:20.041Z,28.35
2022-12-18T07:22:56.100Z,26.83
2022-12-18T07:23:27.852Z,26.55
2022-12-18T07:23:59.405Z,23.00
2022-12-18T07:24:30.941Z,24.23
2022-12-18T07:25:02.433Z,24.00
2022-12-18T07:25:37.918Z,22.58
2022-12-18T07:26:12.291Z,26.80
2022-12-18T07:26:46.759Z,22.40
2022-12-18T07:27:18.211Z,24.23
2022-12-18T07:27:49.717Z,23.63
2022-12-18T07:28:21.713Z,22.80
2022-12-18T07:28:58.707Z,26.02
2022-12-18T07:29:30.858Z,24.17